createdAt,value
2023-02-20T00:01:57.457Z,99244.75
2023-02-20T00:04:00.489Z,99243.88
2023-02-20T00:06:03.603Z,99249.09
2023-02-20T00:08:06.769Z,99245.59
2023-02-20T00:10:10.527Z,99236.94
2023-02-20T00:12:13.618Z,99224.19
2023-02-20T00:14:16.659Z,99226.94
2023-02-20T00:16:21.013Z,99225.31
2023-02-20T00:18:25.303Z,99226.22
2023-02-20T00:20:30.227Z,99223.78
2023-02-20T00:22:33.313Z,99217.13
2023-02-20T00:24:36.396Z,99225.09
2023-02-20T00:26:39.443Z,99224.38
2023-02-20T00:28:43.854Z,99227.91
2023-02-20T00:30:46.939Z,99226.22
2023-02-20T00:32:53.082Z,99233.22
2023-02-20T00:34:57.764Z,99240.16
2023-02-20T00:37:00.764Z,99249.69
2023-02-20T00:39:03.852Z,99250.59
2023-02-20T00:41:07.356Z,99252.28
2023-02-20T00:43:10.446Z,99259.34
2023-02-20T00:45:14.143Z,99253.41
2023-02-20T00:47:17.262Z,99261.34
2023-02-20T00:49:21.740Z,99257.88
2023-02-20T00:51:24.973Z,99261.50
2023-02-20T00:53:28.236Z,99261.50
2023-02-20T00:55:31.235Z,99251.06
2023-02-20T00:57:34.345Z,99247.59
2023-02-20T00:59:37.477Z,99246.84
2023-02-20T01:01:40.569Z,99243.47
2023-02-20T01:03:43.697Z,99245.28
2023-02-20T01:05:48.223Z,99250.63
2023-02-20T01:07:51.308Z,99252.56
2023-02-20T01:09:54.402Z,99250.84
2023-02-20T01:11:57.499Z,99244.88
2023-02-20T01:14:00.766Z,99245.00
2023-02-20T01:16:04.027Z,99233.88
2023-02-20T01:18:07.411Z,99226.28
2023-02-20T01:20:11.890Z,99234.22
2023-02-20T01:22:16.324Z,99230.91
2023-02-20T01:24:20.001Z,99226.22
2023-02-20T01:26:23.944Z,99232.84
2023-02-20T01:28:27.350Z,99228.81
2023-02-20T01:30:30.442Z,99224.69
2023-02-20T01:32:33.792Z,99231.63
2023-02-20T01:34:36.820Z,99241.13
2023-02-20T01:36:39.894Z,99235.31
2023-02-20T01:38:44.293Z,99232.34
2023-02-20T01:40:48.977Z,99227.97
2023-02-20T01:42:52.247Z,99233.94
2023-02-20T01:44:55.278Z,99233.88
2023-02-20T01:46:59.808Z,99239.16
2023-02-20T01:49:06.111Z,99233.03
2023-02-20T01:51:09.197Z,99227.84
2023-02-20T01:53:14.511Z,99228.66
2023-02-20T01:55:23.863Z,99232.16
2023-02-20T01:57:30.028Z,99226.22
2023-02-20T01:59:34.764Z,99219.41
2023-02-20T02:01:38.033Z,99211.00
2023-02-20T02:03:44.989Z,99216.47
2023-02-20T02:05:50.241Z,99207.06
2023-02-20T02:07:53.322Z,99209.69
2023-02-20T02:09:59.244Z,99212.47
2023-02-20T02:12:06.651Z,99211.81
2023-02-20T02:14:09.733Z,99207.56
2023-02-20T02:16:21.384Z,99198.13
2023-02-20T02:18:42.634Z,99206.81
2023-02-20T02:21:16.503Z,99196.41
2023-02-20T02:23:55.720Z,99200.00
2023-02-20T02:26:01.524Z,99204.28
2023-02-20T02:28:28.913Z,99201.84
2023-02-20T02:30:48.270Z,99205.34
2023-02-20T02:33:05.518Z,99208.91
2023-02-20T02:35:26.801Z,99208.16
2023-02-20T02:37:34.660Z,99202.94
2023-02-20T02:39:44.202Z,99209.13
2023-02-20T02:41:51.979Z,99202.25
2023-02-20T02:43:58.272Z,99202.31
2023-02-20T02:46:05.580Z,99201.53
2023-02-20T02:48:15.054Z,99198.16
2023-02-20T02:50:21.192Z,99192.13
2023-02-20T02:52:46.724Z,99191.31
2023-02-20T02:54:51.392Z,99186.25
2023-02-20T02:56:56.304Z,99195.81
2023-02-20T02:59:00.109Z,99186.38
2023-02-20T03:01:03.736Z,99182.38
2023-02-20T03:03:10.262Z,99181.13
2023-02-20T03:05:17.040Z,99169.72
2023-02-20T03:07:20.885Z,99172.97
2023-02-20T03:09:28.453Z,99174.97
2023-02-20T03:11:34.500Z,99175.44
2023-02-20T03:13:59.930Z,99170.63
2023-02-20T03:16:02.995Z,99185.59
2023-02-20T03:18:15.880Z,99188.25
2023-02-20T03:20:20.369Z,99186.44
2023-02-20T03:22:26.650Z,99191.53
2023-02-20T03:24:30.373Z,99186.22
2023-02-20T03:26:37.108Z,99187.03
2023-02-20T03:28:42.674Z,99192.94
2023-02-20T03:30:50.410Z,99191.94
2023-02-20T03:33:15.637Z,99185.91
2023-02-20T03:35:37.493Z,99185.84
2023-02-20T03:37:59.721Z,99195.28
2023-02-20T03:40:23.422Z,99190.91
2023-02-20T03:42:53.568Z,99184.13
2023-02-20T03:45:04.785Z,99197.97
2023-02-20T03:47:10.530Z,99195.53
2023-02-20T03:49:15.427Z,99196.59
2023-02-20T03:51:20.378Z,99195.53
2023-02-20T03:53:29.588Z,99194.28
2023-02-20T03:55:33.249Z,99194.84
2023-02-20T03:57:44.576Z,99191.84
2023-02-20T03:59:50.451Z,99194.13
2023-02-20T04:01:57.779Z,99195.59
2023-02-20T04:04:01.087Z,99190.97
2023-02-20T04:06:05.924Z,99202.00
2023-02-20T04:08:15.372Z,99194.00
2023-02-20T04:10:23.910Z,99203.31
2023-02-20T04:12:28.897Z,99198.63
2023-02-20T04:14:33.538Z,99203.56
2023-02-20T04:16:51.659Z,99199.91
2023-02-20T04:18:55.168Z,99192.19
2023-02-20T04:20:59.773Z,99185.22
2023-02-20T04:23:16.425Z,99190.16
2023-02-20T04:25:26.331Z,99190.00
2023-02-20T04:27:29.566Z,99189.75
2023-02-20T04:29:35.462Z,99190.50
2023-02-20T04:31:38.669Z,99195.56
2023-02-20T04:33:42.308Z,99184.41
2023-02-20T04:35:52.396Z,99176.75
2023-02-20T04:37:56.224Z,99189.69
2023-02-20T04:39:59.323Z,99180.09
2023-02-20T04:42:03.558Z,99180.03
2023-02-20T04:44:24.429Z,99187.84
2023-02-20T04:46:29.928Z,99193.75
2023-02-20T04:48:33.126Z,99206.53
2023-02-20T04:50:37.064Z,99196.00
2023-02-20T04:52:41.786Z,99207.97
2023-02-20T04:54:45.012Z,99196.72
2023-02-20T04:56:50.422Z,99201.53
2023-02-20T04:58:53.618Z,99192.72
2023-02-20T05:00:58.966Z,99197.72
2023-02-20T05:03:03.620Z,99191.53
2023-02-20T05:05:08.727Z,99190.72
2023-02-20T05:07:11.796Z,99191.66
2023-02-20T05:09:14.963Z,99182.94
2023-02-20T05:11:18.246Z,99190.66
2023-02-20T05:13:21.283Z,99192.28
2023-02-20T05:15:24.549Z,99194.75
2023-02-20T05:17:27.589Z,99199.91
2023-02-20T05:19:32.025Z,99196.72
2023-02-20T05:21:52.536Z,99196.72
2023-02-20T05:23:55.582Z,99202.78
2023-02-20T05:25:58.669Z,99189.84
2023-02-20T05:28:01.836Z,99188.00
2023-02-20T05:30:06.079Z,99190.53
2023-02-20T05:32:09.314Z,99190.53
2023-02-20T05:34:12.440Z,99189.00
2023-02-20T05:36:17.348Z,99191.66
2023-02-20T05:38:21.139Z,99190.72
2023-02-20T05:40:24.379Z,99203.75
2023-02-20T05:42:27.396Z,99194.34
2023-02-20T05:44:30.667Z,99188.28
2023-02-20T05:46:33.738Z,99193.47
2023-02-20T05:48:36.879Z,99197.63
2023-02-20T05:50:39.967Z,99203.59
2023-02-20T05:52:44.964Z,99198.41
2023-02-20T05:54:48.787Z,99191.59
2023-02-20T05:56:52.562Z,99189.19
2023-02-20T05:58:55.639Z,99189.19
2023-02-20T06:00:58.686Z,99184.00
2023-02-20T06:03:01.738Z,99190.94
2023-02-20T06:05:05.628Z,99191.00
2023-02-20T06:07:10.341Z,99191.88
2023-02-20T06:09:16.852Z,99201.34
2023-02-20T06:11:19.875Z,99196.06
2023-02-20T06:13:22.995Z,99198.69
2023-02-20T06:15:26.090Z,99196.22
2023-02-20T06:17:30.556Z,99195.44
2023-02-20T06:19:33.681Z,99195.56
2023-02-20T06:21:37.699Z,99199.00
2023-02-20T06:23:41.148Z,99202.47
2023-02-20T06:25:45.734Z,99199.09
2023-02-20T06:27:48.802Z,99199.88
2023-02-20T06:29:51.945Z,99198.19
2023-02-20T06:31:55.250Z,99205.09
2023-02-20T06:33:58.370Z,99212.88
2023-02-20T06:36:01.514Z,99202.47
2023-02-20T06:38:04.694Z,99206.13
2023-02-20T06:40:08.541Z,99206.25
2023-02-20T06:42:13.064Z,99217.06
2023-02-20T06:44:16.211Z,99211.84
2023-02-20T06:46:19.531Z,99205.88
2023-02-20T06:48:22.623Z,99207.78
2023-02-20T06:50:25.727Z,99218.19
2023-02-20T06:52:28.831Z,99226.63
2023-02-20T06:54:31.920Z,99222.88
2023-02-20T06:56:36.368Z,99231.38
2023-02-20T06:58:41.113Z,99222.44
2023-02-20T07:00:44.232Z,99219.75
2023-02-20T07:02:47.376Z,99227.56
2023-02-20T07:04:51.047Z,99231.88
2023-02-20T07:06:54.333Z,99229.25
2023-02-20T07:08:57.435Z,99228.44
2023-02-20T07:11:00.853Z,99235.50
2023-02-20T07:13:06.290Z,99223.63
2023-02-20T07:15:11.963Z,99239.88
2023-02-20T07:17:15.022Z,99235.44
2023-02-20T07:19:18.299Z,99234.53
2023-02-20T07:21:21.525Z,99239.66
2023-02-20T07:23:24.730Z,99240.56
2023-02-20T07:25:27.828Z,99245.00
2023-02-20T07:27:30.890Z,99237.91
2023-02-20T07:29:33.975Z,99239.91
2023-02-20T07:31:39.238Z,99242.09
2023-02-20T07:33:43.668Z,99241.31
2023-02-20T07:35:47.184Z,99242.59
2023-02-20T07:37:51.250Z,99244.16
2023-02-20T07:39:54.332Z,99247.97
2023-02-20T07:41:57.354Z,99245.88
2023-02-20T07:44:15.449Z,99250.19
2023-02-20T07:46:20.340Z,99253.53
2023-02-20T07:48:25.328Z,99250.59
2023-02-20T07:50:28.437Z,99254.13
2023-02-20T07:52:31.614Z,99252.28
2023-02-20T07:54:34.726Z,99247.94
2023-02-20T07:56:38.014Z,99245.13
2023-02-20T07:58:41.194Z,99246.41
2023-02-20T08:00:44.436Z,99250.47
2023-02-20T08:02:48.028Z,99245.22
2023-02-20T08:04:52.539Z,99250.97
2023-02-20T08:06:55.755Z,99242.78
2023-02-20T08:08:58.849Z,99250.28
2023-02-20T08:11:08.657Z,99252.13
2023-02-20T08:13:13.170Z,99242.84
2023-02-20T08:15:16.488Z,99228.75
2023-02-20T08:17:19.975Z,99233.06
2023-02-20T08:19:23.114Z,99236.25
2023-02-20T08:21:27.818Z,99235.34
2023-02-20T08:23:32.016Z,99228.06
2023-02-20T08:25:35.563Z,99232.09
2023-02-20T08:27:43.279Z,99232.28
2023-02-20T08:29:46.812Z,99233.72
2023-02-20T08:31:51.016Z,99227.09
2023-02-20T08:33:57.037Z,99232.81
2023-02-20T08:36:00.495Z,99231.03
2023-02-20T08:38:06.744Z,99235.22
2023-02-20T08:40:11.307Z,99233.03
2023-02-20T08:42:16.849Z,99229.22
2023-02-20T08:44:20.767Z,99234.50
2023-02-20T08:46:28.335Z,99229.47
2023-02-20T08:48:31.606Z,99227.50
2023-02-20T08:50:34.894Z,99221.66
2023-02-20T08:52:37.959Z,99224.09
2023-02-20T08:54:46.937Z,99224.75
2023-02-20T08:56:51.455Z,99226.81
2023-02-20T08:58:54.921Z,99228.97
2023-02-20T09:00:58.200Z,99228.13
2023-02-20T09:03:01.486Z,99224.28
2023-02-20T09:05:07.672Z,99228.97
2023-02-20T09:07:11.179Z,99236.63
2023-02-20T09:09:14.743Z,99223.34
2023-02-20T09:11:19.576Z,99229.81
2023-02-20T09:13:22.591Z,99218.13
2023-02-20T09:15:26.542Z,99216.84
2023-02-20T09:17:30.700Z,99219.06
2023-02-20T09:19:34.046Z,99217.75
2023-02-20T09:21:37.548Z,99217.75
2023-02-20T09:23:41.203Z,99210.38
2023-02-20T09:25:44.402Z,99214.09
2023-02-20T09:27:48.900Z,99217.06
2023-02-20T09:29:52.043Z,99211.75
2023-02-20T09:31:55.436Z,99205.75
2023-02-20T09:33:58.642Z,99200.16
2023-02-20T09:36:01.766Z,99209.94
2023-02-20T09:38:07.147Z,99202.34
2023-02-20T09:40:11.358Z,99202.16
2023-02-20T09:42:24.888Z,99200.00
2023-02-20T09:44:33.840Z,99189.81
2023-02-20T09:46:37.248Z,99190.31
2023-02-20T09:48:59.795Z,99174.50
2023-02-20T09:51:05.095Z,99164.41
2023-02-20T09:53:18.090Z,99166.75
2023-02-20T09:55:22.400Z,99176.88
2023-02-20T09:57:27.784Z,99168.16
2023-02-20T09:59:34.934Z,99167.09
2023-02-20T10:01:41.501Z,99159.94
2023-02-20T10:03:54.454Z,99164.38
2023-02-20T10:05:58.261Z,99160.66
2023-02-20T10:08:01.292Z,99154.06
2023-02-20T10:10:18.635Z,99160.97
2023-02-20T10:12:26.774Z,99161.84
2023-02-20T10:14:44.341Z,99162.97
2023-02-20T10:16:53.159Z,99169.09
2023-02-20T10:19:04.118Z,99164.69
2023-02-20T10:21:13.320Z,99158.81
2023-02-20T10:23:24.205Z,99158.38
2023-02-20T10:25:30.743Z,99162.81
2023-02-20T10:27:43.056Z,99167.00
2023-02-20T10:29:48.034Z,99174.34
2023-02-20T10:31:54.006Z,99151.97
2023-02-20T10:34:00.846Z,99150.16
2023-02-20T10:36:09.894Z,99148.91
2023-02-20T10:38:15.377Z,99149.66
2023-02-20T10:40:22.147Z,99150.28
2023-02-20T10:42:31.091Z,99144.19
2023-02-20T10:44:50.103Z,99147.00
2023-02-20T10:47:00.076Z,99139.25
2023-02-20T10:49:10.263Z,99134.41
2023-02-20T10:51:17.254Z,99139.34
2023-02-20T10:53:26.966Z,99131.66
2023-02-20T10:55:34.920Z,99138.81
2023-02-20T10:57:41.283Z,99140.53
2023-02-20T10:59:50.844Z,99134.28
2023-02-20T11:01:59.625Z,99125.59
2023-02-20T11:04:06.171Z,99117.59
2023-02-20T11:06:12.766Z,99119.38
2023-02-20T11:08:21.151Z,99116.75
2023-02-20T11:10:24.317Z,99121.63
2023-02-20T11:12:32.461Z,99112.94
2023-02-20T11:14:43.073Z,99114.25
2023-02-20T11:16:50.780Z,99117.91
2023-02-20T11:19:04.236Z,99110.66
2023-02-20T11:21:07.420Z,99101.81
2023-02-20T11:23:11.673Z,99094.19
2023-02-20T11:25:20.042Z,99094.19
2023-02-20T11:27:24.190Z,99087.44
2023-02-20T11:29:31.343Z,99079.56
2023-02-20T11:31:36.043Z,99074.44
2023-02-20T11:33:45.615Z,99069.31
2023-02-20T11:35:51.726Z,99067.28
2023-02-20T11:38:23.936Z,99070.53
2023-02-20T11:40:29.017Z,99067.78
2023-02-20T11:42:34.708Z,99063.69
2023-02-20T11:44:37.851Z,99050.66
2023-02-20T11:46:41.172Z,99051.81
2023-02-20T11:49:01.105Z,99049.53
2023-02-20T11:51:06.047Z,99051.38
2023-02-20T11:53:19.700Z,99050.47
2023-02-20T11:55:27.523Z,99039.50
2023-02-20T11:57:31.238Z,99032.91
2023-02-20T11:59:37.760Z,99037.56
2023-02-20T12:01:43.312Z,99023.94
2023-02-20T12:03:56.029Z,99020.97
2023-02-20T12:06:00.505Z,99021.19
2023-02-20T12:08:05.398Z,99017.41
2023-02-20T12:10:24.733Z,99004.78
2023-02-20T12:12:30.330Z,99015.72
2023-02-20T12:14:33.442Z,99016.78
2023-02-20T12:16:55.975Z,98997.94
2023-02-20T12:19:05.409Z,99000.97
2023-02-20T12:21:29.742Z,98996.44
2023-02-20T12:23:40.719Z,98991.41
2023-02-20T12:25:54.354Z,98993.91
2023-02-20T12:28:10.653Z,98983.75
2023-02-20T12:30:34.879Z,98978.59
2023-02-20T12:32:49.304Z,98974.19
2023-02-20T12:35:01.521Z,98958.56
2023-02-20T12:37:09.347Z,98958.78
2023-02-20T12:39:20.423Z,98959.06
2023-02-20T12:41:30.836Z,98948.94
2023-02-20T12:43:42.176Z,98946.41
2023-02-20T12:45:50.778Z,98936.66
2023-02-20T12:48:03.483Z,98940.00
2023-02-20T12:50:27.592Z,98936.22
2023-02-20T12:52:42.097Z,98932.84
2023-02-20T12:54:52.202Z,98928.00
2023-02-20T12:57:04.672Z,98926.69
2023-02-20T12:59:17.946Z,98920.19
2023-02-20T13:01:34.233Z,98914.38
2023-02-20T13:03:47.417Z,98912.94
2023-02-20T13:05:52.124Z,98908.09
2023-02-20T13:07:56.905Z,98901.97
2023-02-20T13:10:06.579Z,98904.94
2023-02-20T13:12:14.031Z,98906.25
2023-02-20T13:14:24.955Z,98908.66
2023-02-20T13:16:32.712Z,98897.19
2023-02-20T13:18:40.881Z,98893.94
2023-02-20T13:20:47.051Z,98894.19
2023-02-20T13:23:00.710Z,98892.66
2023-02-20T13:25:42.845Z,98884.31
2023-02-20T13:27:45.936Z,98873.59
2023-02-20T13:29:58.785Z,98879.44
2023-02-20T13:32:03.384Z,98878.38
2023-02-20T13:34:29.386Z,98876.47
2023-02-20T13:36:41.945Z,98864.25
2023-02-20T13:39:23.776Z,98861.84
2023-02-20T13:41:28.230Z,98856.72
2023-02-20T13:43:33.853Z,98847.88
2023-02-20T13:45:39.361Z,98837.38
2023-02-20T13:47:42.553Z,98829.59
2023-02-20T13:49:58.372Z,98819.91
2023-02-20T13:52:01.793Z,98823.03
2023-02-20T13:54:21.870Z,98818.38
2023-02-20T13:56:28.691Z,98818.25
2023-02-20T13:58:31.682Z,98808.22
2023-02-20T14:00:42.693Z,98806.31
2023-02-20T14:02:46.209Z,98802.59
2023-02-20T14:04:57.466Z,98805.25
2023-02-20T14:07:00.648Z,98799.84
2023-02-20T14:09:10.801Z,98806.69
2023-02-20T14:11:16.880Z,98797.00
2023-02-20T14:13:34.259Z,98792.56
2023-02-20T14:15:47.343Z,98792.09
2023-02-20T14:17:52.894Z,98791.38
2023-02-20T14:20:05.398Z,98799.28
2023-02-20T14:22:27.957Z,98788.00
2023-02-20T14:24:31.139Z,98795.44
2023-02-20T14:26:35.160Z,98796.28
2023-02-20T14:28:46.371Z,98795.19
2023-02-20T14:31:05.381Z,98796.16
2023-02-20T14:33:21.579Z,98795.44
2023-02-20T14:35:37.603Z,98797.94
2023-02-20T14:37:46.056Z,98793.78
2023-02-20T14:39:51.852Z,98799.25
2023-02-20T14:41:56.997Z,98803.06
2023-02-20T14:44:03.067Z,98783.97
2023-02-20T14:46:08.213Z,98786.72
2023-02-20T14:48:24.068Z,98777.97
2023-02-20T14:50:29.170Z,98788.00
2023-02-20T14:52:32.264Z,98788.00
2023-02-20T14:54:35.408Z,98786.31
2023-02-20T14:56:38.567Z,98787.06
2023-02-20T14:58:41.600Z,98782.38
2023-02-20T15:00:47.274Z,98775.31
2023-02-20T15:02:55.200Z,98765.75
2023-02-20T15:05:04.048Z,98774.72
2023-02-20T15:07:08.332Z,98772.22
2023-02-20T15:09:22.057Z,98764.44
2023-02-20T15:11:26.176Z,98753.81
2023-02-20T15:13:31.270Z,98756.56
2023-02-20T15:15:37.234Z,98765.63
2023-02-20T15:17:42.565Z,98771.13
2023-02-20T15:19:45.796Z,98753.81
2023-02-20T15:21:57.094Z,98767.59
2023-02-20T15:24:14.525Z,98756.34
2023-02-20T15:26:28.325Z,98755.88
2023-02-20T15:28:31.965Z,98764.59
2023-02-20T15:30:35.744Z,98746.53
2023-02-20T15:32:41.949Z,98752.88
2023-02-20T15:34:45.467Z,98758.34
2023-02-20T15:36:49.723Z,98758.34
2023-02-20T15:38:55.290Z,98760.34
2023-02-20T15:40:59.743Z,98757.00
2023-02-20T15:43:04.575Z,98745.19
2023-02-20T15:45:13.746Z,98754.03
2023-02-20T15:47:17.536Z,98741.13
2023-02-20T15:49:21.953Z,98744.78
2023-02-20T15:51:25.616Z,98734.06
2023-02-20T15:53:30.796Z,98735.72
2023-02-20T15:55:35.931Z,98740.22
2023-02-20T15:57:39.043Z,98729.13
2023-02-20T15:59:42.207Z,98725.91
2023-02-20T16:01:45.788Z,98720.88
2023-02-20T16:03:52.863Z,98721.00
2023-02-20T16:05:58.542Z,98728.97
2023-02-20T16:08:01.588Z,98719.66
2023-02-20T16:10:05.601Z,98735.63
2023-02-20T16:12:10.582Z,98730.59
2023-02-20T16:14:15.182Z,98724.84
2023-02-20T16:16:25.525Z,98724.13
2023-02-20T16:18:31.502Z,98720.16
2023-02-20T16:20:34.651Z,98727.44
2023-02-20T16:22:39.127Z,98725.03
2023-02-20T16:24:43.200Z,98727.00
2023-02-20T16:26:49.125Z,98718.53
2023-02-20T16:28:54.681Z,98719.59
2023-02-20T16:30:57.907Z,98714.66
2023-02-20T16:33:01.181Z,98719.50
2023-02-20T16:35:04.483Z,98708.41
2023-02-20T16:37:10.805Z,98704.44
2023-02-20T16:39:25.733Z,98703.22
2023-02-20T16:41:31.064Z,98700.91
2023-02-20T16:43:34.162Z,98710.03
2023-02-20T16:45:37.789Z,98701.69
2023-02-20T16:47:41.244Z,98700.22
2023-02-20T16:49:44.273Z,98705.78
2023-02-20T16:51:51.100Z,98702.66
2023-02-20T16:53:54.546Z,98695.22
2023-02-20T16:55:58.994Z,98698.38
2023-02-20T16:58:02.310Z,98697.00
2023-02-20T17:00:06.422Z,98692.09
2023-02-20T17:02:15.053Z,98691.59
2023-02-20T17:04:19.719Z,98691.91
2023-02-20T17:06:23.461Z,98686.88
2023-02-20T17:08:26.658Z,98692.31
2023-02-20T17:10:30.410Z,98693.50
2023-02-20T17:12:35.189Z,98690.53
2023-02-20T17:14:38.265Z,98696.41
2023-02-20T17:16:41.332Z,98688.75
2023-02-20T17:18:44.444Z,98690.03
2023-02-20T17:20:47.689Z,98700.81
2023-02-20T17:23:02.842Z,98703.66
2023-02-20T17:25:07.898Z,98702.13
2023-02-20T17:27:11.929Z,98698.06
2023-02-20T17:29:16.830Z,98696.38
2023-02-20T17:31:21.526Z,98693.97
2023-02-20T17:33:26.080Z,98691.44
2023-02-20T17:35:29.404Z,98692.50
2023-02-20T17:37:34.610Z,98692.59
2023-02-20T17:39:38.628Z,98689.34
2023-02-20T17:41:41.835Z,98688.81
2023-02-20T17:43:44.803Z,98687.25
2023-02-20T17:45:49.281Z,98686.63
2023-02-20T17:47:52.468Z,98692.25
2023-02-20T17:49:56.870Z,98682.19
2023-02-20T17:52:00.274Z,98680.72
2023-02-20T17:54:04.017Z,98695.06
2023-02-20T17:56:07.506Z,98690.41
2023-02-20T17:58:10.587Z,98684.81
2023-02-20T18:00:14.970Z,98686.81
2023-02-20T18:02:20.437Z,98687.09
2023-02-20T18:04:24.277Z,98691.72
2023-02-20T18:06:27.416Z,98690.22
2023-02-20T18:08:31.901Z,98691.16
2023-02-20T18:10:34.967Z,98701.81
2023-02-20T18:12:38.990Z,98694.91
2023-02-20T18:14:42.100Z,98703.78
2023-02-20T18:16:45.795Z,98695.31
2023-02-20T18:18:50.422Z,98696.31
2023-02-20T18:20:53.569Z,98690.25
2023-02-20T18:22:56.866Z,98702.78
2023-02-20T18:25:00.054Z,98695.16
2023-02-20T18:27:03.280Z,98691.59
2023-02-20T18:29:06.778Z,98686.34
2023-02-20T18:31:10.528Z,98691.59
2023-02-20T18:33:13.632Z,98693.47
2023-02-20T18:35:19.163Z,98691.25
2023-02-20T18:37:22.350Z,98690.34
2023-02-20T18:39:25.513Z,98695.38
2023-02-20T18:41:28.635Z,98692.56
2023-02-20T18:43:32.581Z,98692.22
2023-02-20T18:45:35.715Z,98689.16
2023-02-20T18:47:38.801Z,98684.03
2023-02-20T18:49:42.041Z,98691.19
2023-02-20T18:51:46.548Z,98685.97
2023-02-20T18:53:49.605Z,98693.69
2023-02-20T18:55:52.725Z,98692.78
2023-02-20T18:57:55.871Z,98691.19
2023-02-20T18:59:58.992Z,98690.44
2023-02-20T19:02:05.895Z,98691.53
2023-02-20T19:04:09.097Z,98685.69
2023-02-20T19:06:12.344Z,98689.13
2023-02-20T19:08:16.985Z,98691.63
2023-02-20T19:10:21.914Z,98679.44
2023-02-20T19:12:25.034Z,98678.88
2023-02-20T19:14:29.463Z,98676.81
2023-02-20T19:16:32.779Z,98678.13
2023-02-20T19:18:45.887Z,98676.72
2023-02-20T19:20:53.015Z,98673.84
2023-02-20T19:22:56.365Z,98668.06
2023-02-20T19:25:01.541Z,98669.06
2023-02-20T19:27:04.824Z,98675.19
2023-02-20T19:29:08.304Z,98668.88
2023-02-20T19:31:12.202Z,98674.63
2023-02-20T19:33:15.535Z,98668.16
2023-02-20T19:35:18.943Z,98670.47
2023-02-20T19:37:22.907Z,98673.34
2023-02-20T19:39:26.009Z,98676.03
2023-02-20T19:41:30.429Z,98676.97
2023-02-20T19:43:33.564Z,98665.44
2023-02-20T19:45:36.681Z,98667.88
2023-02-20T19:47:39.896Z,98664.25
2023-02-20T19:49:46.008Z,98668.34
2023-02-20T19:51:50.583Z,98664.00
2023-02-20T19:53:53.670Z,98655.41
2023-02-20T19:55:56.704Z,98658.09
2023-02-20T19:58:02.892Z,98662.66
2023-02-20T20:00:06.495Z,98657.81
2023-02-20T20:02:15.470Z,98672.88
2023-02-20T20:04:18.832Z,98668.28
2023-02-20T20:06:26.630Z,98666.94
2023-02-20T20:08:29.714Z,98673.00
2023-02-20T20:10:33.167Z,98667.78
2023-02-20T20:12:49.922Z,98666.19
2023-02-20T20:14:54.732Z,98654.94
2023-02-20T20:16:58.026Z,98659.38
2023-02-20T20:19:01.478Z,98653.66
2023-02-20T20:21:04.796Z,98658.53
2023-02-20T20:23:10.263Z,98659.97
2023-02-20T20:25:13.998Z,98654.63
2023-02-20T20:27:20.657Z,98654.22
2023-02-20T20:29:23.830Z,98652.78
2023-02-20T20:31:29.884Z,98658.31
2023-02-20T20:33:33.059Z,98656.81
2023-02-20T20:35:36.242Z,98662.84
2023-02-20T20:37:39.385Z,98666.63
2023-02-20T20:39:42.529Z,98666.94
2023-02-20T20:41:45.880Z,98665.38
2023-02-20T20:43:49.239Z,98662.94
2023-02-20T20:45:53.188Z,98666.44
2023-02-20T20:47:57.829Z,98665.78
2023-02-20T20:50:01.243Z,98663.91
2023-02-20T20:52:04.618Z,98649.31
2023-02-20T20:54:07.847Z,98659.88
2023-02-20T20:56:11.216Z,98655.06
2023-02-20T20:58:14.339Z,98651.78
2023-02-20T21:00:21.944Z,98661.84
2023-02-20T21:02:26.070Z,98659.63
2023-02-20T21:04:31.733Z,98653.72
2023-02-20T21:06:34.824Z,98649.53
2023-02-20T21:08:38.014Z,98655.50
2023-02-20T21:10:41.132Z,98653.66
2023-02-20T21:12:44.633Z,98659.63
2023-02-20T21:14:48.334Z,98659.63
2023-02-20T21:16:51.527Z,98660.47
2023-02-20T21:18:54.804Z,98663.97
2023-02-20T21:20:59.267Z,98665.00
2023-02-20T21:23:04.387Z,98650.44
2023-02-20T21:25:07.583Z,98653.22
2023-02-20T21:27:10.634Z,98649.09
2023-02-20T21:29:13.758Z,98646.66
2023-02-20T21:31:17.489Z,98645.13
2023-02-20T21:33:20.911Z,98656.00
2023-02-20T21:35:26.066Z,98652.16
2023-02-20T21:37:30.593Z,98637.38
2023-02-20T21:39:33.677Z,98643.13
2023-02-20T21:41:54.697Z,98633.19
2023-02-20T21:44:15.452Z,98635.25
2023-02-20T21:46:19.588Z,98635.47
2023-02-20T21:48:22.728Z,98633.34
2023-02-20T21:50:25.769Z,98640.50
2023-02-20T21:52:36.604Z,98639.03
2023-02-20T21:54:41.285Z,98625.50
2023-02-20T21:56:44.454Z,98633.34
2023-02-20T21:59:01.584Z,98632.69
2023-02-20T22:01:03.611Z,98632.75
2023-02-20T22:03:05.621Z,98627.56
2023-02-20T22:05:08.699Z,98632.69
2023-02-20T22:07:29.324Z,98629.41
2023-02-20T22:09:51.384Z,98632.28
2023-02-20T22:12:12.110Z,98631.59
2023-02-20T22:14:32.984Z,98639.66
2023-02-20T22:16:53.496Z,98632.03
2023-02-20T22:19:14.160Z,98636.34
2023-02-20T22:21:38.298Z,98637.34
2023-02-20T22:23:58.794Z,98633.22
2023-02-20T22:26:22.459Z,98631.59
2023-02-20T22:28:43.107Z,98629.06
2023-02-20T22:31:03.772Z,98627.41
2023-02-20T22:33:24.472Z,98632.44
2023-02-20T22:35:44.929Z,98635.09
2023-02-20T22:38:05.601Z,98635.09
2023-02-20T22:40:27.013Z,98636.09
2023-02-20T22:42:48.786Z,98632.88
2023-02-20T22:45:09.738Z,98629.63
2023-02-20T22:47:30.386Z,98630.63
2023-02-20T22:49:51.136Z,98631.66
2023-02-20T22:52:11.901Z,98634.31
2023-02-20T22:54:32.673Z,98625.84
2023-02-20T22:56:53.232Z,98626.91
2023-02-20T22:59:16.041Z,98620.25
2023-02-20T23:01:36.852Z,98626.28
2023-02-20T23:03:57.415Z,98627.25
2023-02-20T23:06:19.601Z,98617.28
2023-02-20T23:08:40.962Z,98615.34
2023-02-20T23:11:01.695Z,98611.25
2023-02-20T23:13:22.319Z,98601.78
2023-02-20T23:15:44.291Z,98606.13
2023-02-20T23:18:05.491Z,98604.72
2023-02-20T23:20:28.643Z,98607.78
2023-02-20T23:22:48.975Z,98606.88
2023-02-20T23:25:09.315Z,98608.44
2023-02-20T23:27:29.700Z,98609.97
2023-02-20T23:29:49.998Z,98604.59
2023-02-20T23:32:12.003Z,98613.72
2023-02-20T23:34:32.632Z,98609.97
2023-02-20T23:36:53.134Z,98609.91
2023-02-20T23:39:13.444Z,98601.53
2023-02-20T23:41:33.973Z,98603.22
2023-02-20T23:43:54.620Z,98598.31
2023-02-20T23:46:14.960Z,98595.22
2023-02-20T23:48:36.681Z,98595.41
2023-02-20T23:50:57.430Z,98595.41
2023-02-20T23:53:17.947Z,98602.59
2023-02-20T23:55:38.404Z,98600.19
2023-02-20T23:57:58.944Z,98598.75
